sensor_id;sensor_type;location;lat;lon;timestamp;pressure;altitude;pressure_sealevel;temperature;humidity
74075;BME280;62428;51.412;5.432;2023-06-22T00:00:55;101707.91;;;21.01;63.63
74075;BME280;62428;51.412;5.432;2023-06-22T00:03:22;101723.72;;;20.96;62.68
74075;BME280;62428;51.412;5.432;2023-06-22T00:05:48;101727.47;;;20.91;62.01
74075;BME280;62428;51.412;5.432;2023-06-22T00:08:14;101731.31;;;20.90;62.30
74075;BME280;62428;51.412;5.432;2023-06-22T00:10:39;101732.03;;;20.87;63.00
74075;BME280;62428;51.412;5.432;2023-06-22T00:13:06;101732.34;;;20.85;63.37
74075;BME280;62428;51.412;5.432;2023-06-22T00:15:32;101738.16;;;20.84;63.37
74075;BME280;62428;51.412;5.432;2023-06-22T00:17:58;101733.84;;;20.83;63.28
74075;BME280;62428;51.412;5.432;2023-06-22T00:20:24;101724.72;;;20.79;63.15
74075;BME280;62428;51.412;5.432;2023-06-22T00:22:57;101732.56;;;20.80;63.55
74075;BME280;62428;51.412;5.432;2023-06-22T00:25:23;101729.38;;;20.78;63.53
74075;BME280;62428;51.412;5.432;2023-06-22T00:27:49;101722.31;;;20.77;63.69
74075;BME280;62428;51.412;5.432;2023-06-22T00:30:18;101732.47;;;20.77;63.51
74075;BME280;62428;51.412;5.432;2023-06-22T00:32:45;101730.50;;;20.77;63.88
74075;BME280;62428;51.412;5.432;2023-06-22T00:35:12;101727.00;;;20.77;64.09
74075;BME280;62428;51.412;5.432;2023-06-22T00:37:38;101725.41;;;20.76;64.45
74075;BME280;62428;51.412;5.432;2023-06-22T00:40:10;101722.22;;;20.73;63.95
74075;BME280;62428;51.412;5.432;2023-06-22T00:42:37;101717.91;;;20.72;63.68
74075;BME280;62428;51.412;5.432;2023-06-22T00:45:03;101706.41;;;20.67;64.99
74075;BME280;62428;51.412;5.432;2023-06-22T00:47:29;101711.97;;;20.70;64.56
74075;BME280;62428;51.412;5.432;2023-06-22T00:49:54;101718.22;;;20.71;65.03
74075;BME280;62428;51.412;5.432;2023-06-22T00:52:21;101714.72;;;20.70;64.62
74075;BME280;62428;51.412;5.432;2023-06-22T00:54:52;101710.81;;;20.71;65.02
74075;BME280;62428;51.412;5.432;2023-06-22T00:57:19;101706.97;;;20.72;65.20
74075;BME280;62428;51.412;5.432;2023-06-22T00:59:45;101712.88;;;20.74;65.36
74075;BME280;62428;51.412;5.432;2023-06-22T01:02:12;101705.81;;;20.73;65.09
74075;BME280;62428;51.412;5.432;2023-06-22T01:04:39;101715.16;;;20.72;65.22
74075;BME280;62428;51.412;5.432;2023-06-22T01:07:10;101707.97;;;20.68;65.41
74075;BME280;62428;51.412;5.432;2023-06-22T01:10:12;101714.25;;;20.68;64.91
74075;BME280;62428;51.412;5.432;2023-06-22T01:12:43;101705.13;;;20.64;65.82
74075;BME280;62428;51.412;5.432;2023-06-22T01:15:11;101709.34;;;20.62;65.72
74075;BME280;62428;51.412;5.432;2023-06-22T01:17:40;101707.75;;;20.61;65.95
74075;BME280;62428;51.412;5.432;2023-06-22T01:20:08;101700.03;;;20.63;65.89
74075;BME280;62428;51.412;5.432;2023-06-22T01:22:46;101712.06;;;20.62;65.89
74075;BME280;62428;51.412;5.432;2023-06-22T01:25:20;101712.72;;;20.59;65.76
74075;BME280;62428;51.412;5.432;2023-06-22T01:30:54;101710.69;;;20.55;66.20
74075;BME280;62428;51.412;5.432;2023-06-22T01:33:29;101708.28;;;20.54;66.09
74075;BME280;62428;51.412;5.432;2023-06-22T01:35:56;101705.09;;;20.52;66.23
74075;BME280;62428;51.412;5.432;2023-06-22T01:38:22;101708.16;;;20.50;66.41
74075;BME280;62428;51.412;5.432;2023-06-22T01:40:48;101702.59;;;20.47;66.45
74075;BME280;62428;51.412;5.432;2023-06-22T01:43:15;101698.59;;;20.44;66.48
74075;BME280;62428;51.412;5.432;2023-06-22T01:45:41;101701.81;;;20.46;66.77
74075;BME280;62428;51.412;5.432;2023-06-22T01:48:07;101704.88;;;20.45;66.44
74075;BME280;62428;51.412;5.432;2023-06-22T01:50:33;101701.69;;;20.43;67.03
74075;BME280;62428;51.412;5.432;2023-06-22T01:52:58;101696.88;;;20.40;67.05
74075;BME280;62428;51.412;5.432;2023-06-22T01:55:24;101701.88;;;20.38;67.10
74075;BME280;62428;51.412;5.432;2023-06-22T01:57:49;101708.78;;;20.35;66.76
74075;BME280;62428;51.412;5.432;2023-06-22T02:00:19;101698.91;;;20.30;67.15
74075;BME280;62428;51.412;5.432;2023-06-22T02:05:16;101695.72;;;20.28;67.50
74075;BME280;62428;51.412;5.432;2023-06-22T02:08:09;101689.56;;;20.31;66.43
74075;BME280;62428;51.412;5.432;2023-06-22T02:10:37;101689.13;;;20.29;67.62
74075;BME280;62428;51.412;5.432;2023-06-22T02:13:06;101688.66;;;20.27;67.61
74075;BME280;62428;51.412;5.432;2023-06-22T02:15:32;101687.53;;;20.28;67.19
74075;BME280;62428;51.412;5.432;2023-06-22T02:17:58;101685.16;;;20.27;67.39
74075;BME280;62428;51.412;5.432;2023-06-22T02:20:24;101690.94;;;20.25;67.63
74075;BME280;62428;51.412;5.432;2023-06-22T02:22:49;101679.22;;;20.25;67.92
74075;BME280;62428;51.412;5.432;2023-06-22T02:25:15;101679.56;;;20.23;67.59
74075;BME280;62428;51.412;5.432;2023-06-22T02:27:40;101679.09;;;20.21;67.66
74075;BME280;62428;51.412;5.432;2023-06-22T02:30:08;101677.50;;;20.20;67.96
74075;BME280;62428;51.412;5.432;2023-06-22T02:32:34;101674.78;;;20.20;68.00
74075;BME280;62428;51.412;5.432;2023-06-22T02:34:59;101674.78;;;20.20;67.68
74075;BME280;62428;51.412;5.432;2023-06-22T02:37:24;101671.25;;;20.20;67.96
74075;BME280;62428;51.412;5.432;2023-06-22T02:39:50;101669.31;;;20.20;68.42
74075;BME280;62428;51.412;5.432;2023-06-22T02:42:15;101666.59;;;20.20;68.43
74075;BME280;62428;51.412;5.432;2023-06-22T02:44:45;101665.47;;;20.21;68.35
74075;BME280;62428;51.412;5.432;2023-06-22T02:47:11;101669.31;;;20.20;68.84
74075;BME280;62428;51.412;5.432;2023-06-22T02:49:36;101671.25;;;20.20;68.64
74075;BME280;62428;51.412;5.432;2023-06-22T02:52:01;101668.53;;;20.20;68.75
74075;BME280;62428;51.412;5.432;2023-06-22T02:54:27;101671.25;;;20.20;69.01
74075;BME280;62428;51.412;5.432;2023-06-22T02:56:52;101664.19;;;20.19;68.94
74075;BME280;62428;51.412;5.432;2023-06-22T02:59:17;101667.75;;;20.19;68.95
74075;BME280;62428;51.412;5.432;2023-06-22T03:01:48;101666.59;;;20.20;69.15
74075;BME280;62428;51.412;5.432;2023-06-22T03:04:15;101651.38;;;20.19;69.46
74075;BME280;62428;51.412;5.432;2023-06-22T03:06:41;101644.31;;;20.18;69.20
74075;BME280;62428;51.412;5.432;2023-06-22T03:09:06;101656.00;;;20.19;69.34
74075;BME280;62428;51.412;5.432;2023-06-22T03:11:33;101648.19;;;20.17;69.21
74075;BME280;62428;51.412;5.432;2023-06-22T03:13:59;101642.03;;;20.20;69.27
74075;BME280;62428;51.412;5.432;2023-06-22T03:16:25;101643.19;;;20.19;69.44
74075;BME280;62428;51.412;5.432;2023-06-22T03:18:50;101636.91;;;20.19;69.51
74075;BME280;62428;51.412;5.432;2023-06-22T03:21:16;101629.88;;;20.17;69.44
74075;BME280;62428;51.412;5.432;2023-06-22T03:23:42;101625.09;;;20.14;69.62
74075;BME280;62428;51.412;5.432;2023-06-22T03:26:08;101621.13;;;20.12;69.87
74075;BME280;62428;51.412;5.432;2023-06-22T03:28:34;101619.50;;;20.11;69.76
74075;BME280;62428;51.412;5.432;2023-06-22T03:30:59;101617.56;;;20.11;69.84
74075;BME280;62428;51.412;5.432;2023-06-22T03:33:25;101623.72;;;20.08;70.18
74075;BME280;62428;51.412;5.432;2023-06-22T03:35:50;101621.00;;;20.08;69.67
74075;BME280;62428;51.412;5.432;2023-06-22T03:38:16;101611.22;;;20.07;69.88
74075;BME280;62428;51.412;5.432;2023-06-22T03:40:42;101610.75;;;20.05;69.93
74075;BME280;62428;51.412;5.432;2023-06-22T03:43:07;101613.81;;;20.04;69.74
74075;BME280;62428;51.412;5.432;2023-06-22T03:45:32;101613.69;;;20.00;69.70
74075;BME280;62428;51.412;5.432;2023-06-22T03:47:58;101613.56;;;19.96;69.97
74075;BME280;62428;51.412;5.432;2023-06-22T03:50:23;101616.63;;;19.95;70.07
74075;BME280;62428;51.412;5.432;2023-06-22T03:52:48;101614.25;;;19.93;70.03
74075;BME280;62428;51.412;5.432;2023-06-22T03:55:14;101620.84;;;19.92;70.27
74075;BME280;62428;51.412;5.432;2023-06-22T03:57:39;101616.50;;;19.91;69.79
74075;BME280;62428;51.412;5.432;2023-06-22T04:00:05;101623.56;;;19.92;70.02
74075;BME280;62428;51.412;5.432;2023-06-22T04:02:31;101624.03;;;19.94;70.51
74075;BME280;62428;51.412;5.432;2023-06-22T04:04:56;101628.81;;;19.97;70.33
74075;BME280;62428;51.412;5.432;2023-06-22T04:07:22;101631.66;;;20.01;71.62
74075;BME280;62428;51.412;5.432;2023-06-22T04:09:47;101627.44;;;20.04;71.74
74075;BME280;62428;51.412;5.432;2023-06-22T04:12:13;101621.66;;;20.05;71.90
74075;BME280;62428;51.412;5.432;2023-06-22T04:14:38;101612.38;;;20.06;71.29
74075;BME280;62428;51.412;5.432;2023-06-22T04:17:04;101612.00;;;20.08;70.79
74075;BME280;62428;51.412;5.432;2023-06-22T04:19:29;101600.63;;;20.06;70.24
74075;BME280;62428;51.412;5.432;2023-06-22T04:21:55;101612.69;;;20.05;70.39
74075;BME280;62428;51.412;5.432;2023-06-22T04:24:20;101605.97;;;20.02;70.06
74075;BME280;62428;51.412;5.432;2023-06-22T04:26:45;101616.41;;;20.00;69.96
74075;BME280;62428;51.412;5.432;2023-06-22T04:29:12;101615.19;;;19.97;69.76
74075;BME280;62428;51.412;5.432;2023-06-22T04:31:38;101609.72;;;19.97;70.31
74075;BME280;62428;51.412;5.432;2023-06-22T04:34:05;101611.66;;;19.97;70.08
74075;BME280;62428;51.412;5.432;2023-06-22T04:36:34;101613.25;;;19.98;70.09
74075;BME280;62428;51.412;5.432;2023-06-22T04:39:06;101615.31;;;20.01;70.37
74075;BME280;62428;51.412;5.432;2023-06-22T04:41:37;101614.16;;;20.02;70.44
74075;BME280;62428;51.412;5.432;2023-06-22T04:44:09;101623.16;;;20.03;70.39
74075;BME280;62428;51.412;5.432;2023-06-22T04:46:36;101618.47;;;20.03;70.62
74075;BME280;62428;51.412;5.432;2023-06-22T04:49:07;101624.41;;;20.05;70.46
74075;BME280;62428;51.412;5.432;2023-06-22T04:51:39;101624.06;;;20.07;70.70
74075;BME280;62428;51.412;5.432;2023-06-22T04:54:06;101619.41;;;20.07;70.90
74075;BME280;62428;51.412;5.432;2023-06-22T04:56:32;101619.06;;;20.09;70.95
74075;BME280;62428;51.412;5.432;2023-06-22T04:58:58;101621.91;;;20.12;71.03
74075;BME280;62428;51.412;5.432;2023-06-22T05:01:23;101623.53;;;20.13;71.07
74075;BME280;62428;51.412;5.432;2023-06-22T05:03:49;101622.03;;;20.16;71.39
74075;BME280;62428;51.412;5.432;2023-06-22T05:06:15;101617.81;;;20.19;71.22
74075;BME280;62428;51.412;5.432;2023-06-22T05:08:40;101615.22;;;20.22;71.53
74075;BME280;62428;51.412;5.432;2023-06-22T05:11:06;101612.16;;;20.24;71.88
74075;BME280;62428;51.412;5.432;2023-06-22T05:13:32;101616.59;;;20.28;71.91
74075;BME280;62428;51.412;5.432;2023-06-22T05:15:57;101606.81;;;20.27;71.92
74075;BME280;62428;51.412;5.432;2023-06-22T05:18:30;101608.88;;;20.30;72.04
74075;BME280;62428;51.412;5.432;2023-06-22T05:20:55;101605.00;;;20.31;72.33
74075;BME280;62428;51.412;5.432;2023-06-22T05:23:21;101602.28;;;20.31;72.25
74075;BME280;62428;51.412;5.432;2023-06-22T05:25:46;101613.31;;;20.35;72.58
74075;BME280;62428;51.412;5.432;2023-06-22T05:28:12;101616.50;;;20.37;72.18
74075;BME280;62428;51.412;5.432;2023-06-22T05:30:37;101627.06;;;20.39;72.00
74075;BME280;62428;51.412;5.432;2023-06-22T05:33:03;101620.16;;;20.41;72.51
74075;BME280;62428;51.412;5.432;2023-06-22T05:35:29;101607.41;;;20.45;72.15
74075;BME280;62428;51.412;5.432;2023-06-22T05:37:55;101609.00;;;20.46;72.44
74075;BME280;62428;51.412;5.432;2023-06-22T05:40:20;101615.72;;;20.49;72.30
74075;BME280;62428;51.412;5.432;2023-06-22T05:42:46;101612.19;;;20.48;71.81
74075;BME280;62428;51.412;5.432;2023-06-22T05:45:11;101613.78;;;20.49;71.78
74075;BME280;62428;51.412;5.432;2023-06-22T05:47:36;101617.66;;;20.48;71.88
74075;BME280;62428;51.412;5.432;2023-06-22T05:50:02;101618.88;;;20.51;72.16
74075;BME280;62428;51.412;5.432;2023-06-22T05:52:32;101615.81;;;20.52;71.54
74075;BME280;62428;51.412;5.432;2023-06-22T05:54:57;101624.47;;;20.54;71.94
74075;BME280;62428;51.412;5.432;2023-06-22T05:57:23;101622.06;;;20.53;71.47
74075;BME280;62428;51.412;5.432;2023-06-22T05:59:48;101620.03;;;20.50;71.65
74075;BME280;62428;51.412;5.432;2023-06-22T06:02:13;101618.88;;;20.51;71.95
74075;BME280;62428;51.412;5.432;2023-06-22T06:04:39;101618.88;;;20.51;71.98
74075;BME280;62428;51.412;5.432;2023-06-22T06:07:04;101620.03;;;20.50;71.92
74075;BME280;62428;51.412;5.432;2023-06-22T06:09:30;101615.38;;;20.50;71.72
74075;BME280;62428;51.412;5.432;2023-06-22T06:11:56;101621.75;;;20.54;72.93
74075;BME280;62428;51.412;5.432;2023-06-22T06:14:21;101614.13;;;20.60;72.13
74075;BME280;62428;51.412;5.432;2023-06-22T06:16:48;101605.28;;;20.63;72.09
74075;BME280;62428;51.412;5.432;2023-06-22T06:19:14;101614.94;;;20.61;71.93
74075;BME280;62428;51.412;5.432;2023-06-22T06:21:39;101614.78;;;20.57;71.95
74075;BME280;62428;51.412;5.432;2023-06-22T06:24:05;101616.28;;;20.54;72.36
74075;BME280;62428;51.412;5.432;2023-06-22T06:26:30;101620.94;;;20.54;72.43
74075;BME280;62428;51.412;5.432;2023-06-22T06:28:59;101618.22;;;20.54;72.42
74075;BME280;62428;51.412;5.432;2023-06-22T06:31:24;101615.72;;;20.49;72.37
74075;BME280;62428;51.412;5.432;2023-06-22T06:33:52;101616.38;;;20.46;72.93
74075;BME280;62428;51.412;5.432;2023-06-22T06:36:19;101608.91;;;20.43;73.28
74075;BME280;62428;51.412;5.432;2023-06-22T06:38:44;101604.91;;;20.40;73.47
74075;BME280;62428;51.412;5.432;2023-06-22T06:41:09;101619.69;;;20.39;73.01
74075;BME280;62428;51.412;5.432;2023-06-22T06:43:35;101618.88;;;20.39;73.77
74075;BME280;62428;51.412;5.432;2023-06-22T06:46:00;101617.31;;;20.38;73.67
74075;BME280;62428;51.412;5.432;2023-06-22T06:48:25;101617.31;;;20.38;73.72
74075;BME280;62428;51.412;5.432;2023-06-22T06:50:51;101616.97;;;20.39;73.53
74075;BME280;62428;51.412;5.432;2023-06-22T06:53:16;101627.50;;;20.41;73.70
74075;BME280;62428;51.412;5.432;2023-06-22T06:55:41;101629.13;;;20.42;75.18
74075;BME280;62428;51.412;5.432;2023-06-22T06:58:07;101633.91;;;20.45;75.46
74075;BME280;62428;51.412;5.432;2023-06-22T07:00:33;101636.31;;;20.46;75.80
74075;BME280;62428;51.412;5.432;2023-06-22T07:02:58;101637.09;;;20.47;76.07
74075;BME280;62428;51.412;5.432;2023-06-22T07:05:24;101637.53;;;20.49;75.95
74075;BME280;62428;51.412;5.432;2023-06-22T07:07:49;101633.69;;;20.50;75.13
74075;BME280;62428;51.412;5.432;2023-06-22T07:10:15;101634.16;;;20.52;74.90
74075;BME280;62428;51.412;5.432;2023-06-22T07:12:40;101628.69;;;20.52;75.90
74075;BME280;62428;51.412;5.432;2023-06-22T07:15:08;101628.00;;;20.55;75.77
74075;BME280;62428;51.412;5.432;2023-06-22T07:17:34;101620.72;;;20.59;76.63
74075;BME280;62428;51.412;5.432;2023-06-22T07:20:00;101607.56;;;20.61;76.00
74075;BME280;62428;51.412;5.432;2023-06-22T07:22:26;101607.69;;;20.65;75.74
74075;BME280;62428;51.412;5.432;2023-06-22T07:24:51;101598.78;;;20.68;76.00
74075;BME280;62428;51.412;5.432;2023-06-22T07:27:17;101594.94;;;20.69;75.19
74075;BME280;62428;51.412;5.432;2023-06-22T07:29:44;101587.19;;;20.71;75.06
74075;BME280;62428;51.412;5.432;2023-06-22T07:32:09;101574.78;;;20.73;75.05
74075;BME280;62428;51.412;5.432;2023-06-22T07:34:35;101577.63;;;20.77;75.83
74075;BME280;62428;51.412;5.432;2023-06-22T07:37:00;101571.13;;;20.82;75.54
74075;BME280;62428;51.412;5.432;2023-06-22T07:39:26;101576.25;;;20.83;73.66
74075;BME280;62428;51.412;5.432;2023-06-22T07:41:52;101574.75;;;20.86;72.98
74075;BME280;62428;51.412;5.432;2023-06-22T07:44:18;101566.34;;;20.91;73.69
74075;BME280;62428;51.412;5.432;2023-06-22T07:46:43;101550.63;;;21.00;74.01
74075;BME280;62428;51.412;5.432;2023-06-22T07:49:08;101546.16;;;21.08;73.31
74075;BME280;62428;51.412;5.432;2023-06-22T07:51:34;101542.16;;;21.18;73.12
74075;BME280;62428;51.412;5.432;2023-06-22T07:53:59;101536.06;;;21.24;72.46
74075;BME280;62428;51.412;5.432;2023-06-22T07:56:25;101522.16;;;21.29;72.77
74075;BME280;62428;51.412;5.432;2023-06-22T07:58:50;101527.06;;;21.36;71.20
74075;BME280;62428;51.412;5.432;2023-06-22T08:01:16;101519.75;;;21.40;70.88
74075;BME280;62428;51.412;5.432;2023-06-22T08:03:42;101501.84;;;21.43;71.19
74075;BME280;62428;51.412;5.432;2023-06-22T08:06:09;101502.78;;;21.47;70.89
74075;BME280;62428;51.412;5.432;2023-06-22T08:08:38;101500.47;;;21.49;71.07
74075;BME280;62428;51.412;5.432;2023-06-22T08:11:03;101497.75;;;21.49;70.53
74075;BME280;62428;51.412;5.432;2023-06-22T08:13:29;101491.84;;;21.47;70.31
74075;BME280;62428;51.412;5.432;2023-06-22T08:15:54;101500.03;;;21.47;70.96
74075;BME280;62428;51.412;5.432;2023-06-22T08:18:20;101494.13;;;21.45;71.57
74075;BME280;62428;51.412;5.432;2023-06-22T08:20:45;101490.91;;;21.43;70.20
74075;BME280;62428;51.412;5.432;2023-06-22T08:23:11;101487.72;;;21.41;70.76
74075;BME280;62428;51.412;5.432;2023-06-22T08:25:36;101486.16;;;21.40;71.11
74075;BME280;62428;51.412;5.432;2023-06-22T08:28:03;101500.59;;;21.40;71.19
74075;BME280;62428;51.412;5.432;2023-06-22T08:30:28;101500.94;;;21.39;69.67
74075;BME280;62428;51.412;5.432;2023-06-22T08:32:54;101502.91;;;21.38;69.93
74075;BME280;62428;51.412;5.432;2023-06-22T08:35:21;101497.44;;;21.38;70.25
74075;BME280;62428;51.412;5.432;2023-06-22T08:37:47;101500.94;;;21.39;70.74
74075;BME280;62428;51.412;5.432;2023-06-22T08:40:18;101495.13;;;21.40;70.73
74075;BME280;62428;51.412;5.432;2023-06-22T08:42:45;101499.47;;;21.41;70.46
74075;BME280;62428;51.412;5.432;2023-06-22T08:45:11;101493.19;;;21.41;69.86
74075;BME280;62428;51.412;5.432;2023-06-22T08:47:37;101490.13;;;21.42;70.20
74075;BME280;62428;51.412;5.432;2023-06-22T08:50:02;101485.81;;;21.41;69.14
74075;BME280;62428;51.412;5.432;2023-06-22T08:52:28;101483.41;;;21.40;68.95
74075;BME280;62428;51.412;5.432;2023-06-22T08:54:54;101485.81;;;21.41;69.13
74075;BME280;62428;51.412;5.432;2023-06-22T08:57:20;101481.91;;;21.42;69.57
74075;BME280;62428;51.412;5.432;2023-06-22T08:59:46;101475.00;;;21.45;69.47
74075;BME280;62428;51.412;5.432;2023-06-22T09:02:11;101483.75;;;21.50;69.48
74075;BME280;62428;51.412;5.432;2023-06-22T09:04:37;101484.28;;;21.56;70.33
74075;BME280;62428;51.412;5.432;2023-06-22T09:07:02;101478.16;;;21.63;69.49
74075;BME280;62428;51.412;5.432;2023-06-22T09:09:28;101477.22;;;21.71;69.16
74075;BME280;62428;51.412;5.432;2023-06-22T09:11:53;101474.66;;;21.78;69.66
74075;BME280;62428;51.412;5.432;2023-06-22T09:14:19;101467.00;;;21.84;68.66
74075;BME280;62428;51.412;5.432;2023-06-22T09:16:44;101467.94;;;21.92;68.57
74075;BME280;62428;51.412;5.432;2023-06-22T09:19:10;101464.16;;;21.96;68.89
74075;BME280;62428;51.412;5.432;2023-06-22T09:21:36;101468.22;;;22.02;68.50
74075;BME280;62428;51.412;5.432;2023-06-22T09:24:02;101466.69;;;22.05;67.65
74075;BME280;62428;51.412;5.432;2023-06-22T09:26:27;101462.03;;;22.05;67.30
74075;BME280;62428;51.412;5.432;2023-06-22T09:28:53;101466.34;;;22.06;67.69
74075;BME280;62428;51.412;5.432;2023-06-22T09:31:18;101463.59;;;22.06;68.35
74075;BME280;62428;51.412;5.432;2023-06-22T09:33:51;101463.19;;;22.04;67.48
74075;BME280;62428;51.412;5.432;2023-06-22T09:36:17;101461.59;;;22.03;67.41
74075;BME280;62428;51.412;5.432;2023-06-22T09:38:42;101463.91;;;22.01;66.73
74075;BME280;62428;51.412;5.432;2023-06-22T09:41:07;101467.00;;;22.00;67.04
74075;BME280;62428;51.412;5.432;2023-06-22T09:43:33;101454.81;;;21.97;66.67
74075;BME280;62428;51.412;5.432;2023-06-22T09:46:01;101463.72;;;21.94;66.54
74075;BME280;62428;51.412;5.432;2023-06-22T09:48:28;101466.00;;;21.92;66.91
74075;BME280;62428;51.412;5.432;2023-06-22T09:50:54;101458.19;;;21.91;67.33
74075;BME280;62428;51.412;5.432;2023-06-22T09:53:20;101456.56;;;21.89;67.65
74075;BME280;62428;51.412;5.432;2023-06-22T09:55:45;101447.59;;;21.89;67.11
74075;BME280;62428;51.412;5.432;2023-06-22T09:58:10;101453.84;;;21.89;67.30
74075;BME280;62428;51.412;5.432;2023-06-22T10:00:36;101454.63;;;21.90;68.27
74075;BME280;62428;51.412;5.432;2023-06-22T10:03:01;101449.16;;;21.90;67.73
74075;BME280;62428;51.412;5.432;2023-06-22T10:05:26;101451.09;;;21.89;68.54
74075;BME280;62428;51.412;5.432;2023-06-22T10:07:52;101456.56;;;21.89;69.20
74075;BME280;62428;51.412;5.432;2023-06-22T10:10:17;101452.25;;;21.88;68.72
74075;BME280;62428;51.412;5.432;2023-06-22T10:12:46;101453.41;;;21.87;68.67
74075;BME280;62428;51.412;5.432;2023-06-22T10:15:12;101460.44;;;21.88;68.46
74075;BME280;62428;51.412;5.432;2023-06-22T10:17:37;101458.53;;;21.89;69.56
74075;BME280;62428;51.412;5.432;2023-06-22T10:20:03;101459.31;;;21.89;69.12
74075;BME280;62428;51.412;5.432;2023-06-22T10:22:35;101471.03;;;21.90;70.24
74075;BME280;62428;51.412;5.432;2023-06-22T10:25:01;101473.00;;;21.89;71.34
74075;BME280;62428;51.412;5.432;2023-06-22T10:27:26;101472.56;;;21.87;71.71
74075;BME280;62428;51.412;5.432;2023-06-22T10:29:52;101473.59;;;21.83;71.82
74075;BME280;62428;51.412;5.432;2023-06-22T10:32:17;101477.84;;;21.80;74.09
74075;BME280;62428;51.412;5.432;2023-06-22T10:34:42;101479.25;;;21.74;74.30
74075;BME280;62428;51.412;5.432;2023-06-22T10:37:08;101490.91;;;21.71;73.33
74075;BME280;62428;51.412;5.432;2023-06-22T10:39:33;101494.31;;;21.68;74.27
74075;BME280;62428;51.412;5.432;2023-06-22T10:41:58;101507.56;;;21.66;75.70
74075;BME280;62428;51.412;5.432;2023-06-22T10:44:24;101496.97;;;21.64;78.29
74075;BME280;62428;51.412;5.432;2023-06-22T10:46:49;101496.63;;;21.66;82.46
74075;BME280;62428;51.412;5.432;2023-06-22T10:49:14;101499.16;;;21.59;83.12
74075;BME280;62428;51.412;5.432;2023-06-22T10:51:40;101504.78;;;21.50;83.89
74075;BME280;62428;51.412;5.432;2023-06-22T10:54:06;101499.28;;;21.34;84.69
74075;BME280;62428;51.412;5.432;2023-06-22T10:56:31;101500.56;;;21.24;87.35
74075;BME280;62428;51.412;5.432;2023-06-22T10:58:59;101495.63;;;21.14;87.49
74075;BME280;62428;51.412;5.432;2023-06-22T11:01:24;101486.06;;;21.08;88.50
74075;BME280;62428;51.412;5.432;2023-06-22T11:03:49;101499.06;;;20.99;88.47
74075;BME280;62428;51.412;5.432;2023-06-22T11:06:15;101496.94;;;20.92;88.65
74075;BME280;62428;51.412;5.432;2023-06-22T11:08:44;101506.16;;;20.87;90.15
74075;BME280;62428;51.412;5.432;2023-06-22T11:11:09;101515.75;;;20.81;91.87
74075;BME280;62428;51.412;5.432;2023-06-22T11:13:34;101512.91;;;20.78;91.99
74075;BME280;62428;51.412;5.432;2023-06-22T11:16:00;101508.13;;;20.74;91.67
74075;BME280;62428;51.412;5.432;2023-06-22T11:18:25;101500.16;;;20.69;91.99
74075;BME280;62428;51.412;5.432;2023-06-22T11:20:50;101497.22;;;20.62;93.07
74075;BME280;62428;51.412;5.432;2023-06-22T11:23:16;101499.25;;;20.53;92.73
74075;BME280;62428;51.412;5.432;2023-06-22T11:25:41;101511.22;;;20.48;93.78
74075;BME280;62428;51.412;5.432;2023-06-22T11:28:08;101511.78;;;20.42;94.21
74075;BME280;62428;51.412;5.432;2023-06-22T11:30:33;101501.53;;;20.39;94.58
74075;BME280;62428;51.412;5.432;2023-06-22T11:32:59;101488.94;;;20.34;94.95
74075;BME280;62428;51.412;5.432;2023-06-22T11:35:25;101484.06;;;20.27;94.47
74075;BME280;62428;51.412;5.432;2023-06-22T11:37:51;101476.91;;;20.23;95.24
74075;BME280;62428;51.412;5.432;2023-06-22T11:40:16;101463.16;;;20.19;95.70
74075;BME280;62428;51.412;5.432;2023-06-22T11:42:43;101452.13;;;20.15;95.52
74075;BME280;62428;51.412;5.432;2023-06-22T11:45:08;101454.41;;;20.13;95.59
74075;BME280;62428;51.412;5.432;2023-06-22T11:47:34;101450.41;;;20.11;96.04
74075;BME280;62428;51.412;5.432;2023-06-22T11:49:59;101452.34;;;20.10;96.47
74075;BME280;62428;51.412;5.432;2023-06-22T11:52:24;101450.31;;;20.07;95.59
74075;BME280;62428;51.412;5.432;2023-06-22T11:54:51;101445.19;;;20.06;96.85
74075;BME280;62428;51.412;5.432;2023-06-22T11:57:16;101448.72;;;20.06;97.04
74075;BME280;62428;51.412;5.432;2023-06-22T11:59:42;101426.09;;;20.06;97.46
74075;BME280;62428;51.412;5.432;2023-06-22T12:02:07;101431.56;;;20.06;97.86
74075;BME280;62428;51.412;5.432;2023-06-22T12:04:34;101425.66;;;20.04;98.13
74075;BME280;62428;51.412;5.432;2023-06-22T12:06:59;101430.66;;;20.02;97.51
74075;BME280;62428;51.412;5.432;2023-06-22T12:09:24;101436.91;;;20.02;97.84
74075;BME280;62428;51.412;5.432;2023-06-22T12:11:50;101424.41;;;20.01;97.79
74075;BME280;62428;51.412;5.432;2023-06-22T12:14:15;101419.63;;;19.98;96.59
74075;BME280;62428;51.412;5.432;2023-06-22T12:16:41;101410.22;;;19.95;97.63
74075;BME280;62428;51.412;5.432;2023-06-22T12:19:06;101410.22;;;19.95;96.70
74075;BME280;62428;51.412;5.432;2023-06-22T12:21:31;101411.56;;;19.89;95.79
74075;BME280;62428;51.412;5.432;2023-06-22T12:23:57;101400.19;;;19.87;96.54
74075;BME280;62428;51.412;5.432;2023-06-22T12:26:22;101399.09;;;19.88;96.95
74075;BME280;62428;51.412;5.432;2023-06-22T12:28:48;101391.25;;;19.87;97.78
74075;BME280;62428;51.412;5.432;2023-06-22T12:31:14;101390.44;;;19.86;97.97
74075;BME280;62428;51.412;5.432;2023-06-22T12:33:39;101401.34;;;19.86;98.43
74075;BME280;62428;51.412;5.432;2023-06-22T12:36:05;101394.41;;;19.89;98.23
74075;BME280;62428;51.412;5.432;2023-06-22T12:38:30;101401.91;;;19.92;99.51
74075;BME280;62428;51.412;5.432;2023-06-22T12:40:55;101393.28;;;19.90;99.84
74075;BME280;62428;51.412;5.432;2023-06-22T12:43:21;101400.66;;;19.89;99.54
74075;BME280;62428;51.412;5.432;2023-06-22T12:45:46;101398.38;;;19.91;99.51
74075;BME280;62428;51.412;5.432;2023-06-22T12:48:11;101383.63;;;19.92;99.45
74075;BME280;62428;51.412;5.432;2023-06-22T12:50:38;101380.44;;;19.90;98.13